Marialva, Brazil
Current Conditions -  °F | °C
As of 6:00 PM on Friday 24 Oct 2014 (Local Time) from SBMG Reporting Station
Thunderstorm Thunderstorm  
Wind Chill: 72°   Ceiling: Unl
Heat Index: 72°   Visibility: 6mi
Dew Point: 63°   Wind: 16mph
Humidity: 73%   Direction: 200°SSW
Pressure: 29.88"   Gusts: 28mph
Location:  23.49°S, 51.79°W
Report Text: SBMG 242000Z 20014G24KT 9999 TS VCSH SCT040 FEW045CB SCT10022/17 Q1012
Loading
Personal Weather Stations






























Interactive Weather Map
Tropical Storm Tracking
New forecast layout! Learn more

10-Day Weather Forecast

Advertisements
Track Severe Weather on mobile